Pagina principale
METAR-TAF:

METAR-TAF

Aeroporti :

Sugh el Giumaa

Tripoli, Libia

latitudine: 32-54N, longitudine: 13-17E, altezza: 11 m

METAR: mancante

Ora: 19:45 (17:45 UTC)

Previsione

Il bollettino è stato emesso 6 ore e 45 minuti fa, alle 11:00 UTC
Previsione valida dal 19 alle 12 UTC al 20 alle 12 UTC
Vento 10 kt da nord-ovest
Visibilità 10 km o più
Poco nuvoloso ad un'altezza di 2500 ft
Evoluzione graduale
dal 19 alle 20 UTC al 19 alle 22 UTC
Vento 2 kt da direzioni variabili
Evoluzione graduale
dal 20 alle 10 UTC al 20 alle 12 UTC
Vento 10 kt da ovest/nord-ovest

TAF: HLLM 191100Z 1912/2012 32010KT 9999 FEW025 BECMG 1920/1922 VRB02KT BECMG 2010/2012 30010KT

Osservazioni e previsioni meteorologiche di più di 4000 aeroporti (messaggi METAR e TAF).

Le stazioni disponibili sono rappresentate dai dischi gialli e rossi sulla carta.

Puntare il mouse per vedere il nome della stazione.

Clicca sopra per visualizzare le osservazioni e previsioni meteorologiche.

Per cambiare la mappa : fare clic sui pulsanti verdi con una croce nera per ingrandire, il pulsante verde con un trattino per diminuire, o sulla freccia verde per le mappe adiacenti.


METAR-TAF: